Time;durP1;ratioP1;P1;durP2;ratioP2;P2;SDS_P1;SDS_P2;PMS_P1;PMS_P2;Temp;Humidity;BMP_temperature;BMP_pressure;BME280_temperature;BME280_humidity;BME280_pressure;Samples;Min_cycle;Max_cycle;Signal;HPM_P1;HPM_P2
2022/12/20 07:06:08;;;;;;;4.30;2.53;;;;;;;10.17;99.19;100931.00;5322300;27;20199;-69
2022/12/20 07:08:39;;;;;;;2.95;2.42;;;;;;;10.20;99.27;100930.41;5303642;28;20062;-68
2022/12/20 07:11:10;;;;;;;4.10;2.40;;;;;;;10.26;98.71;100915.44;5299540;28;20072;-69
2022/12/20 07:13:42;;;;;;;2.22;1.70;;;;;;;10.26;98.70;100925.72;5301337;28;20020;-69
2022/12/20 07:16:13;;;;;;;3.58;1.92;;;;;;;10.32;98.52;100930.94;5300959;28;20032;-69
2022/12/20 07:18:49;;;;;;;4.00;2.45;;;;;;;10.34;97.82;100930.69;5300060;28;20483;-69
2022/12/20 07:21:21;;;;;;;4.93;2.10;;;;;;;10.38;97.29;100937.28;5300385;28;20028;-69
2022/12/20 07:23:55;;;;;;;2.63;2.00;;;;;;;10.40;97.00;100932.28;5302438;28;20093;-70
2022/12/20 07:26:26;;;;;;;3.63;1.90;;;;;;;10.41;96.23;100928.41;5322064;28;20043;-69
2022/12/20 07:28:58;;;;;;;3.53;2.25;;;;;;;10.45;95.96;100926.72;5322121;28;20024;-69
2022/12/20 07:31:29;;;;;;;3.58;2.05;;;;;;;10.44;95.87;100925.88;5320994;28;20032;-69
2022/12/20 07:34:01;;;;;;;2.35;2.15;;;;;;;10.43;96.07;100935.34;5321648;28;20020;-70
2022/12/20 07:36:32;;;;;;;2.75;1.90;;;;;;;10.44;96.19;100925.06;5321690;28;20028;-70
2022/12/20 07:39:03;;;;;;;2.25;2.00;;;;;;;10.50;95.97;100940.53;5321015;28;20057;-69
2022/12/20 07:41:37;;;;;;;3.38;1.77;;;;;;;10.56;95.27;100955.22;5320600;28;20099;-69
2022/12/20 07:44:09;;;;;;;3.30;1.92;;;;;;;10.53;94.54;100940.00;5300516;28;20107;-69
2022/12/20 07:46:40;;;;;;;2.17;1.77;;;;;;;10.56;94.85;100944.97;5299752;28;20130;-69
2022/12/20 07:49:12;;;;;;;3.13;1.70;;;;;;;10.54;95.12;100947.19;5300269;28;20433;-69
2022/12/20 07:51:54;;;;;;;2.55;2.00;;;;;;;10.56;94.36;100955.22;5299476;28;20020;-69
2022/12/20 07:54:30;;;;;;;3.00;1.98;;;;;;;10.56;94.67;100956.06;5300086;28;20028;-69
2022/12/20 07:57:09;;;;;;;2.63;2.08;;;;;;;10.60;93.94;100947.97;5299738;28;20039;-69
2022/12/20 07:59:46;;;;;;;3.45;2.20;;;;;;;10.59;94.74;100965.75;5300145;28;20032;-69
2022/12/20 08:02:29;;;;;;;3.75;1.92;;;;;;;10.61;95.20;100963.53;5299855;28;20028;-69
2022/12/20 08:05:02;;;;;;;2.97;1.70;;;;;;;10.63;95.43;100955.72;5299374;28;20487;-69
2022/12/20 08:07:36;;;;;;;5.05;1.92;;;;;;;10.59;95.77;100949.09;5298913;28;20036;-69
2022/12/20 08:10:11;;;;;;;3.60;1.98;;;;;;;10.58;96.05;100952.97;5300014;28;20043;-69
2022/12/20 08:12:46;;;;;;;3.55;1.67;;;;;;;10.55;96.89;100951.59;5298993;28;20024;-69
2022/12/20 08:15:18;;;;;;;2.88;2.15;;;;;;;10.51;97.43;100950.53;5298999;28;20032;-69
2022/12/20 08:17:50;;;;;;;6.30;2.47;;;;;;;10.52;97.31;100948.59;5285314;28;20028;-70
2022/12/20 08:20:21;;;;;;;3.58;1.48;;;;;;;10.53;97.62;100945.53;5284788;28;20028;-69
2022/12/20 08:22:52;;;;;;;2.50;1.75;;;;;;;10.53;98.60;100947.47;5285413;28;20025;-69
2022/12/20 08:25:24;;;;;;;2.42;1.65;;;;;;;10.54;99.18;100951.91;5285621;28;20026;-70
2022/12/20 08:27:55;;;;;;;2.35;1.80;;;;;;;10.55;100.00;100950.78;5284994;28;20029;-70
2022/12/20 08:30:27;;;;;;;3.63;2.00;;;;;;;10.55;100.00;100950.78;5285906;28;20020;-71
2022/12/20 08:32:59;;;;;;;3.67;2.10;;;;;;;10.52;100.00;100952.19;5294932;28;20020;-70
2022/12/20 08:35:30;;;;;;;18.70;4.05;;;;;;;10.48;100.00;100948.34;5306037;28;20024;-71
2022/12/20 08:38:01;;;;;;;2.80;2.05;;;;;;;10.44;100.00;100948.06;5306386;28;20020;-71
2022/12/20 08:40:33;;;;;;;3.28;1.95;;;;;;;10.42;100.00;100950.28;5306730;28;20034;-71
2022/12/20 08:43:04;;;;;;;2.33;1.92;;;;;;;10.44;100.00;100947.25;5305645;28;20103;-71
2022/12/20 08:45:51;;;;;;;2.60;2.17;;;;;;;10.45;100.00;100944.16;5306676;28;20024;-72
2022/12/20 08:48:22;;;;;;;3.20;2.20;;;;;;;10.40;100.00;100941.44;5305340;28;20028;-70
2022/12/20 08:50:56;;;;;;;4.97;2.33;;;;;;;10.39;100.00;100939.78;5305410;28;20359;-70
2022/12/20 08:53:30;;;;;;;4.05;2.63;;;;;;;10.36;100.00;100945.91;5305671;28;20489;-69
2022/12/20 08:56:08;;;;;;;6.38;2.60;;;;;;;10.34;100.00;100934.28;5305119;28;20143;-68
2022/12/20 08:58:41;;;;;;;3.83;1.98;;;;;;;10.31;100.00;100926.53;5305665;28;20028;-67
2022/12/20 09:01:15;;;;;;;3.15;2.08;;;;;;;10.23;100.00;100940.97;5306037;28;20425;-68
2022/12/20 09:03:47;;;;;;;3.63;2.20;;;;;;;10.17;100.00;100925.47;5304399;28;20085;-68
2022/12/20 09:06:20;;;;;;;5.22;2.50;;;;;;;10.17;100.00;100929.03;5305174;28;20034;-68
2022/12/20 09:08:52;;;;;;;3.55;2.10;;;;;;;10.16;100.00;100934.91;5301583;28;20078;-68
2022/12/20 09:11:25;;;;;;;4.68;2.50;;;;;;;10.14;100.00;100926.84;5284226;28;20475;-68
2022/12/20 09:13:57;;;;;;;4.70;1.98;;;;;;;10.12;100.00;100918.00;5284511;28;20446;-68
2022/12/20 09:16:31;;;;;;;5.47;2.35;;;;;;;10.11;100.00;100918.28;5283892;28;20030;-69
2022/12/20 09:19:04;;;;;;;4.07;1.80;;;;;;;10.11;100.00;100923.84;5284892;28;20074;-68
2022/12/20 09:21:35;;;;;;;3.35;2.20;;;;;;;10.10;100.00;100920.25;5284951;28;20479;-68
2022/12/20 09:24:08;;;;;;;3.70;2.63;;;;;;;10.11;100.00;100923.84;5296608;28;20028;-68
2022/12/20 09:26:39;;;;;;;4.65;2.72;;;;;;;10.16;100.00;100918.25;5298891;28;20025;-66
2022/12/20 09:29:14;;;;;;;2.95;2.28;;;;;;;10.17;100.00;100926.28;5284232;28;20482;-66
2022/12/20 09:31:45;;;;;;;2.70;2.50;;;;;;;10.18;100.00;100930.72;5300932;28;20048;-66
2022/12/20 09:34:17;;;;;;;2.58;1.98;;;;;;;10.22;100.00;100925.44;5304896;28;20129;-66
2022/12/20 09:36:48;;;;;;;4.90;2.80;;;;;;;10.24;100.00;100925.97;5304992;28;20073;-66
2022/12/20 09:39:20;;;;;;;5.75;2.40;;;;;;;10.26;100.00;100920.16;5284272;28;20395;-66
2022/12/20 09:41:51;;;;;;;3.78;2.33;;;;;;;10.30;100.00;100919.31;5304185;28;20024;-66
2022/12/20 09:44:25;;;;;;;2.70;2.50;;;;;;;10.31;100.00;100921.00;5303985;28;20032;-66
2022/12/20 09:47:04;;;;;;;4.35;2.25;;;;;;;10.35;100.00;100933.16;5303826;28;20032;-65
2022/12/20 09:49:40;;;;;;;8.55;3.45;;;;;;;10.34;100.00;100928.72;5298330;28;20028;-65
2022/12/20 09:52:18;;;;;;;3.55;3.13;;;;;;;10.38;100.00;100927.06;5293167;28;20479;-66
2022/12/20 09:54:53;;;;;;;6.55;2.50;;;;;;;10.36;100.00;100920.97;5304609;28;20063;-65
2022/12/20 09:57:27;;;;;;;4.38;2.53;;;;;;;10.38;100.00;100918.72;5292178;28;20033;-66
2022/12/20 09:59:58;;;;;;;2.30;2.08;;;;;;;10.42;100.00;100928.13;5300520;28;20024;-66
2022/12/20 10:02:29;;;;;;;4.22;2.67;;;;;;;10.39;100.00;100920.38;5289317;28;20043;-66
2022/12/20 10:05:01;;;;;;;4.82;2.33;;;;;;;10.42;100.00;100925.34;5283209;28;20403;-66
2022/12/20 10:08:06;;;;;;;3.47;2.63;;;;;;;10.44;100.00;100920.34;5282779;28;20024;-66
2022/12/20 10:10:53;;;;;;;6.82;3.40;;;;;;;10.46;100.00;100920.06;5290685;28;20031;-66
2022/12/20 10:13:39;;;;;;;2.55;2.00;;;;;;;10.50;100.00;100917.53;5303625;28;20024;-66
2022/12/20 10:16:29;;;;;;;2.47;2.20;;;;;;;10.51;100.00;100914.50;5283190;28;20078;-66
2022/12/20 10:19:38;;;;;;;3.65;2.17;;;;;;;10.53;100.00;100917.81;5286097;28;20036;-66
2022/12/20 10:22:16;;;;;;;3.78;2.95;;;;;;;10.57;100.00;100918.88;5290225;28;20024;-67
2022/12/20 10:25:14;;;;;;;4.10;2.03;;;;;;;10.59;100.00;100915.81;5282504;28;20032;-66
2022/12/20 10:27:47;;;;;;;3.30;2.03;;;;;;;10.64;100.00;100918.56;5271133;28;20087;-66
2022/12/20 10:30:22;;;;;;;5.38;2.20;;;;;;;10.61;100.00;100919.16;5282846;28;20467;-66
2022/12/20 10:32:56;;;;;;;3.97;2.27;;;;;;;10.65;100.00;100921.03;5285127;28;20032;-67
2022/12/20 10:35:37;;;;;;;8.60;6.90;;;;;;;10.64;100.00;100913.84;5282547;28;21820;-66
2022/12/20 10:38:16;;;;;;;3.88;2.60;;;;;;;10.63;100.00;100922.44;5281826;28;20074;-67
2022/12/20 10:41:00;;;;;;;3.28;2.33;;;;;;;10.59;100.00;100918.59;5280761;28;20029;-66
2022/12/20 10:43:47;;;;;;;5.00;2.30;;;;;;;10.53;100.00;100912.25;5283114;28;20032;-67
2022/12/20 10:46:18;;;;;;;3.67;2.53;;;;;;;10.49;100.00;100916.72;5302819;28;20360;-67
2022/12/20 10:48:50;;;;;;;3.92;3.13;;;;;;;10.48;100.00;100908.66;5290254;28;20028;-67
2022/12/20 10:51:21;;;;;;;4.70;2.75;;;;;;;10.47;100.00;100901.47;5281936;28;20017;-67
2022/12/20 10:54:02;;;;;;;4.60;2.88;;;;;;;10.45;100.00;100897.03;5303725;28;20364;-67
2022/12/20 10:56:37;;;;;;;4.43;2.28;;;;;;;10.42;100.00;100900.38;5302718;28;20023;-67
2022/12/20 10:59:14;;;;;;;3.35;2.78;;;;;;;10.42;100.00;100894.03;5301671;28;20413;-68
2022/12/20 11:01:47;;;;;;;4.30;2.80;;;;;;;10.38;100.00;100891.00;5302852;28;20036;-68
2022/12/20 11:04:34;;;;;;;4.43;2.95;;;;;;;10.36;100.00;100896.00;5303073;28;20051;-66
2022/12/20 11:07:27;;;;;;;5.88;2.80;;;;;;;10.36;100.00;100887.69;5282756;28;20438;-66
2022/12/20 11:10:02;;;;;;;4.28;2.90;;;;;;;10.35;100.00;100894.34;5281628;28;20138;-66
2022/12/20 11:12:51;;;;;;;4.95;3.40;;;;;;;10.36;100.00;100890.47;5282185;28;20029;-66
2022/12/20 11:15:29;;;;;;;4.93;3.00;;;;;;;10.33;100.00;100888.28;5282522;28;20431;-66
2022/12/20 11:18:18;;;;;;;5.95;3.35;;;;;;;10.37;100.00;100881.00;5290721;28;20074;-68
2022/12/20 11:20:57;;;;;;;4.47;2.80;;;;;;;10.33;100.00;100879.09;5303310;28;20082;-67
2022/12/20 11:23:56;;;;;;;3.17;2.80;;;;;;;10.35;100.00;100877.69;5292330;28;20020;-67
2022/12/20 11:27:02;;;;;;;5.18;3.42;;;;;;;10.35;100.00;100883.25;5301645;28;20054;-68
2022/12/20 11:30:01;;;;;;;3.90;3.25;;;;;;;10.34;100.00;100884.38;5302456;28;20036;-67
2022/12/20 11:32:40;;;;;;;4.72;4.00;;;;;;;10.33;100.00;100877.19;5303704;28;20545;-67
2022/12/20 11:35:49;;;;;;;5.78;3.83;;;;;;;10.32;100.00;100875.50;5303537;28;20390;-68
2022/12/20 11:38:41;;;;;;;4.57;3.72;;;;;;;10.34;100.00;100880.78;5302813;28;20032;-69
2022/12/20 11:41:22;;;;;;;4.43;3.80;;;;;;;10.32;100.00;100872.72;5288003;28;20359;-68
2022/12/20 11:44:16;;;;;;;7.22;3.97;;;;;;;10.30;100.00;100866.66;5302405;28;20041;-68
2022/12/20 11:47:06;;;;;;;9.77;4.60;;;;;;;10.30;100.00;100863.03;5303555;28;20024;-67
2022/12/20 11:49:40;;;;;;;3.95;3.55;;;;;;;10.31;100.00;100861.94;5290657;28;20023;-67
2022/12/20 11:52:33;;;;;;;6.75;4.60;;;;;;;10.26;100.00;100862.78;5284216;28;20104;-68
2022/12/20 11:55:12;;;;;;;6.45;3.63;;;;;;;10.33;100.00;100865.25;5289090;28;20016;-67
2022/12/20 11:58:05;;;;;;;5.70;3.60;;;;;;;10.36;100.00;100862.75;5292518;28;20029;-67
2022/12/20 12:00:39;;;;;;;5.38;3.33;;;;;;;10.39;100.00;100847.47;5289404;28;20025;-67
2022/12/20 12:03:33;;;;;;;5.25;3.50;;;;;;;10.36;100.00;100851.66;5291880;28;20016;-69
2022/12/20 12:06:22;;;;;;;5.07;3.70;;;;;;;10.44;100.00;100841.88;5284876;28;20049;-67
2022/12/20 12:09:12;;;;;;;6.95;3.65;;;;;;;10.45;100.00;100844.34;5285971;28;20025;-67
2022/12/20 12:12:01;;;;;;;4.57;3.47;;;;;;;10.48;100.00;100845.75;5285065;28;20127;-67
2022/12/20 12:15:14;;;;;;;4.53;3.13;;;;;;;10.51;100.00;100839.63;5302634;28;20050;-67
2022/12/20 12:18:01;;;;;;;4.65;4.13;;;;;;;10.47;100.00;100846.84;5304511;28;20024;-67
2022/12/20 12:20:51;;;;;;;7.00;3.80;;;;;;;10.51;100.00;100852.66;5305746;28;20024;-68
2022/12/20 12:23:34;;;;;;;6.00;4.43;;;;;;;10.52;100.00;100837.66;5310599;28;20114;-68
2022/12/20 12:26:21;;;;;;;5.63;3.95;;;;;;;10.48;100.00;100837.44;5326739;28;20023;-68
2022/12/20 12:28:55;;;;;;;4.05;3.67;;;;;;;10.52;100.00;100832.94;5297662;28;20152;-68
2022/12/20 12:32:02;;;;;;;5.40;4.13;;;;;;;10.53;100.00;100831.84;5289538;28;20012;-68
2022/12/20 12:34:53;;;;;;;6.63;4.22;;;;;;;10.56;100.00;100839.59;5234413;28;20048;-67
2022/12/20 12:37:48;;;;;;;7.00;5.13;;;;;;;10.56;100.00;100839.59;5285227;28;20025;-68
2022/12/20 12:40:49;;;;;;;5.38;4.20;;;;;;;10.57;100.00;100844.00;5284519;28;20378;-68
2022/12/20 12:43:40;;;;;;;5.25;4.05;;;;;;;10.57;100.00;100838.44;5284948;28;20178;-71
2022/12/20 12:46:19;;;;;;;6.72;4.90;;;;;;;10.56;100.00;100836.81;5284992;28;20132;-68
2022/12/20 12:49:05;;;;;;;6.00;4.10;;;;;;;10.59;100.00;100835.41;5284654;28;20446;-67
2022/12/20 12:51:40;;;;;;;4.47;4.07;;;;;;;10.52;100.00;100851.53;5284706;28;20099;-68
2022/12/20 12:54:33;;;;;;;7.53;4.75;;;;;;;10.47;100.00;100834.94;5106306;28;20444;-68
2022/12/20 12:57:08;;;;;;;6.90;4.47;;;;;;;10.48;100.00;100833.81;5284421;28;20119;-67
2022/12/20 12:59:48;;;;;;;8.45;6.82;;;;;;;10.47;100.00;100833.00;5284545;28;20123;-68
2022/12/20 13:02:31;;;;;;;4.57;3.95;;;;;;;10.50;100.00;100831.59;5284055;28;20429;-68
2022/12/20 13:05:05;;;;;;;5.82;4.60;;;;;;;10.49;100.00;100836.31;5297623;28;20047;-68
2022/12/20 13:07:42;;;;;;;4.90;4.13;;;;;;;10.44;100.00;100828.03;5294406;28;20056;-68
2022/12/20 13:10:20;;;;;;;7.35;3.88;;;;;;;10.44;100.00;100826.06;5298602;28;20035;-73
2022/12/20 13:13:00;;;;;;;5.55;3.20;;;;;;;10.43;100.00;100826.34;5305452;28;20074;-72
2022/12/20 13:15:31;;;;;;;4.50;4.10;;;;;;;10.38;100.00;100832.78;5304969;28;20020;-72
2022/12/20 13:18:11;;;;;;;4.65;3.85;;;;;;;10.42;100.00;100831.06;5305248;28;20493;-73
2022/12/20 13:21:17;;;;;;;5.85;3.95;;;;;;;10.43;100.00;100832.75;5303469;28;20028;-72
2022/12/20 13:24:34;;;;;;;6.35;4.05;;;;;;;10.42;100.00;100833.03;5292490;28;20024;-72
2022/12/20 13:27:21;;;;;;;4.95;4.20;;;;;;;10.42;100.00;100833.84;5266031;28;20090;-71
2022/12/20 13:29:55;;;;;;;22.05;18.88;;;;;;;10.40;100.00;100830.53;5304602;28;20028;-72
2022/12/20 13:32:45;;;;;;;5.32;4.20;;;;;;;10.40;100.00;100830.53;5305299;28;20028;-72
2022/12/20 13:35:28;;;;;;;7.50;5.28;;;;;;;10.35;100.00;100827.78;5305162;28;20036;-72
2022/12/20 13:38:01;;;;;;;4.95;4.38;;;;;;;10.29;100.00;100823.41;5298755;28;20033;-75
2022/12/20 13:40:43;;;;;;;6.22;4.88;;;;;;;10.31;100.00;100834.22;5284175;28;20506;-74
2022/12/20 13:43:43;;;;;;;4.22;3.38;;;;;;;10.29;100.00;100828.97;5283290;28;20379;-74
2022/12/20 13:46:45;;;;;;;6.00;3.95;;;;;;;10.29;100.00;100825.38;5275943;28;20487;-74
2022/12/20 13:49:25;;;;;;;3.83;3.45;;;;;;;10.31;100.00;100823.97;5283527;28;20096;-77
2022/12/20 13:52:35;;;;;;;4.40;3.83;;;;;;;10.36;100.00;100834.19;5282920;28;20038;-74
2022/12/20 13:55:21;;;;;;;7.82;7.03;;;;;;;10.28;100.00;100826.47;5283710;28;20036;-75
2022/12/20 13:57:53;;;;;;;3.70;3.22;;;;;;;10.29;100.00;100828.13;5283009;28;20021;-74
2022/12/20 14:00:25;;;;;;;3.38;3.08;;;;;;;10.29;100.00;100825.38;5284221;28;20476;-74
2022/12/20 14:02:57;;;;;;;5.65;4.40;;;;;;;10.26;100.00;100823.97;5284185;28;20040;-75
2022/12/20 14:05:36;;;;;;;4.55;4.00;;;;;;;10.23;100.00;100819.00;5285775;28;20040;-74
2022/12/20 14:08:17;;;;;;;3.95;3.60;;;;;;;10.21;100.00;100821.22;5283941;28;20448;-74
2022/12/20 14:10:51;;;;;;;3.80;3.40;;;;;;;10.21;100.00;100826.78;5301248;28;20042;-74
2022/12/20 14:13:26;;;;;;;5.50;3.22;;;;;;;10.20;100.00;100825.09;5286833;28;20020;-75
2022/12/20 14:16:16;;;;;;;5.03;3.67;;;;;;;10.21;100.00;100824.00;5285799;28;20043;-74
2022/12/20 14:18:49;;;;;;;4.50;3.42;;;;;;;10.17;100.00;100822.91;5294934;28;20042;-75
2022/12/20 14:21:21;;;;;;;9.63;6.32;;;;;;;10.17;100.00;100820.16;5302567;28;20032;-74
2022/12/20 14:23:56;;;;;;;43.63;39.08;;;;;;;10.18;100.00;100819.03;5288154;28;20040;-74
2022/12/20 14:26:32;;;;;;;16.83;15.02;;;;;;;10.16;100.00;100818.50;5294874;28;20068;-75
2022/12/20 14:29:10;;;;;;;8.95;5.75;;;;;;;10.15;100.00;100819.59;5302093;28;20028;-75
2022/12/20 14:31:49;;;;;;;6.32;4.88;;;;;;;10.15;100.00;100822.38;5299845;28;20020;-75
2022/12/20 14:34:27;;;;;;;3.40;2.95;;;;;;;10.15;100.00;100822.38;5303243;28;20042;-74
2022/12/20 14:37:29;;;;;;;5.65;4.20;;;;;;;10.16;100.00;100819.31;5304216;28;20027;-72
2022/12/20 14:40:09;;;;;;;4.10;3.10;;;;;;;10.14;100.00;100821.53;5306685;28;20036;-75
2022/12/20 14:42:40;;;;;;;4.40;3.50;;;;;;;10.08;100.00;100821.88;5287459;28;20027;-76
2022/12/20 14:45:12;;;;;;;4.85;3.40;;;;;;;10.09;100.00;100823.53;5287681;28;20111;-75
2022/12/20 14:47:56;;;;;;;4.85;4.20;;;;;;;10.11;100.00;100829.63;5303095;28;20020;-75
2022/12/20 14:50:29;;;;;;;4.13;3.72;;;;;;;10.08;100.00;100824.66;5293190;28;20024;-75
2022/12/20 14:53:02;;;;;;;5.85;3.63;;;;;;;10.09;100.00;100812.44;5285607;28;20490;-76
2022/12/20 14:55:37;;;;;;;5.00;3.83;;;;;;;10.06;100.00;100811.06;5306086;28;20455;-76
2022/12/20 14:58:30;;;;;;;4.22;3.83;;;;;;;10.15;100.00;100814.91;5307131;28;20032;-76
2022/12/20 15:01:19;;;;;;;5.13;3.55;;;;;;;10.11;100.00;100804.69;5298547;28;20012;-75
2022/12/20 15:03:54;;;;;;;6.50;4.10;;;;;;;10.14;100.00;100799.38;5293406;28;20020;-75
2022/12/20 15:06:43;;;;;;;4.97;3.58;;;;;;;10.10;100.00;100803.00;5302023;28;20047;-76
2022/12/20 15:09:15;;;;;;;3.80;3.50;;;;;;;10.09;100.00;100795.81;5293057;28;20028;-76
2022/12/20 15:11:47;;;;;;;3.55;3.25;;;;;;;10.10;100.00;100787.22;5282710;28;20606;-76
2022/12/20 15:14:37;;;;;;;5.22;4.68;;;;;;;10.06;100.00;100786.13;5282692;28;20077;-75
2022/12/20 15:17:12;;;;;;;5.18;4.35;;;;;;;10.05;100.00;100786.41;5287620;28;20352;-76
2022/12/20 15:19:43;;;;;;;10.85;7.00;;;;;;;10.04;100.00;100787.53;5300893;28;20069;-76
2022/12/20 15:22:17;;;;;;;7.40;4.40;;;;;;;10.06;100.00;100791.69;5281520;28;20024;-76
2022/12/20 15:24:51;;;;;;;5.22;4.13;;;;;;;10.01;100.00;100794.47;5317855;28;20119;-75
2022/12/20 15:27:23;;;;;;;6.15;4.95;;;;;;;10.04;100.00;100793.09;5327995;28;20492;-75
2022/12/20 15:29:54;;;;;;;6.43;4.65;;;;;;;10.06;100.00;100799.16;5328408;28;20035;-75
2022/12/20 15:32:30;;;;;;;6.93;5.80;;;;;;;10.05;100.00;100801.13;5313473;28;20383;-74
2022/12/20 15:35:02;;;;;;;6.50;5.80;;;;;;;10.04;100.00;100795.84;5307571;28;20028;-75
2022/12/20 15:37:34;;;;;;;5.13;4.57;;;;;;;9.99;100.00;100792.00;5302628;28;20032;-75
2022/12/20 15:40:06;;;;;;;5.63;4.60;;;;;;;9.99;100.00;100792.00;5294354;28;20024;-75
2022/12/20 15:42:40;;;;;;;5.57;5.07;;;;;;;10.00;100.00;100801.16;5294077;28;20032;-76
2022/12/20 15:45:13;;;;;;;6.65;5.60;;;;;;;10.01;100.00;100797.25;5287444;28;20033;-75
2022/12/20 15:47:44;;;;;;;6.38;5.75;;;;;;;10.01;100.00;100789.75;5295981;28;20360;-75
2022/12/20 15:50:16;;;;;;;6.40;5.80;;;;;;;10.03;100.00;100797.81;5305936;28;20115;-74
2022/12/20 15:52:50;;;;;;;6.10;5.30;;;;;;;9.97;100.00;100805.31;5306614;28;20024;-73
2022/12/20 15:55:21;;;;;;;6.05;5.10;;;;;;;9.99;100.00;100796.72;5286751;28;20024;-74
2022/12/20 15:57:53;;;;;;;7.60;6.63;;;;;;;9.97;100.00;100804.47;5285173;28;20028;-73
2022/12/20 16:00:27;;;;;;;7.07;5.75;;;;;;;9.93;100.00;100801.47;5286137;28;20088;-74
2022/12/20 16:03:00;;;;;;;8.45;6.20;;;;;;;9.94;100.00;100805.06;5298670;28;20032;-74
2022/12/20 16:05:31;;;;;;;6.82;6.00;;;;;;;9.94;100.00;100792.03;5306175;28;20559;-74
2022/12/20 16:08:04;;;;;;;6.00;5.35;;;;;;;9.94;100.00;100800.34;5287825;28;20122;-75
2022/12/20 16:10:36;;;;;;;11.40;10.30;;;;;;;9.96;100.00;100798.09;5305362;28;20024;-75
2022/12/20 16:13:13;;;;;;;7.63;6.93;;;;;;;9.95;100.00;100798.41;5284569;28;20119;-76
2022/12/20 16:15:45;;;;;;;7.60;6.43;;;;;;;9.97;100.00;100807.25;5285762;28;20036;-74
2022/12/20 16:18:16;;;;;;;7.72;6.93;;;;;;;9.92;100.00;100797.03;5284451;28;20032;-75
2022/12/20 16:20:48;;;;;;;7.70;6.65;;;;;;;9.97;100.00;100793.38;5284618;28;20385;-75
2022/12/20 16:23:23;;;;;;;8.82;7.20;;;;;;;9.90;100.00;100793.72;5290469;28;20028;-73
2022/12/20 16:25:55;;;;;;;8.75;6.63;;;;;;;9.93;100.00;100797.88;5305674;28;20458;-72
2022/12/20 16:28:29;;;;;;;7.97;7.18;;;;;;;9.96;100.00;100802.81;5297751;28;20039;-74
2022/12/20 16:31:10;;;;;;;7.68;6.47;;;;;;;9.96;100.00;100802.81;5285803;28;20020;-74
2022/12/20 16:33:41;;;;;;;7.88;6.32;;;;;;;9.91;100.00;100787.06;5284648;28;20035;-75
2022/12/20 16:36:13;;;;;;;8.90;7.97;;;;;;;9.92;100.00;100799.81;5285390;28;20024;-75
